Time;durP1;ratioP1;P1;durP2;ratioP2;P2;SDS_P1;SDS_P2;PMS_P1;PMS_P2;Temp;Humidity;BMP_temperature;BMP_pressure;BME280_temperature;BME280_humidity;BME280_pressure;Samples;Min_cycle;Max_cycle;Signal;HPM_P1;HPM_P2
2022/02/25 00:00:37;;;;;;;12.30;1.90;;;5.10;96.50;;;;;;5076807;28;20028;-69
2022/02/25 00:03:09;;;;;;;5.85;1.73;;;5.20;96.80;;;;;;5095674;28;20387;-69
2022/02/25 00:05:36;;;;;;;19.05;2.42;;;5.20;96.60;;;;;;5107776;28;20497;-68
2022/02/25 00:08:03;;;;;;;14.57;2.72;;;5.20;96.60;;;;;;5085128;28;20024;-68
2022/02/25 00:10:28;;;;;;;17.92;2.10;;;5.10;96.70;;;;;;5095529;28;20102;-68
2022/02/25 00:12:54;;;;;;;10.20;2.28;;;5.10;96.70;;;;;;5096462;28;20432;-69
2022/02/25 00:15:20;;;;;;;13.43;2.78;;;5.10;96.80;;;;;;5095985;28;20036;-69
2022/02/25 00:17:58;;;;;;;8.77;2.17;;;5.10;96.80;;;;;;5095705;28;20387;-69
2022/02/25 00:20:23;;;;;;;7.03;1.77;;;5.10;96.90;;;;;;5091112;28;20025;-69
2022/02/25 00:22:49;;;;;;;15.00;2.67;;;5.10;96.90;;;;;;5088002;28;20431;-68
2022/02/25 00:25:15;;;;;;;9.75;2.78;;;5.10;97.00;;;;;;5095224;28;20549;-68
2022/02/25 00:27:42;;;;;;;19.85;2.80;;;5.20;97.00;;;;;;5096094;28;20035;-68
2022/02/25 00:30:10;;;;;;;9.18;2.38;;;5.20;96.90;;;;;;5058370;28;20035;-68
2022/02/25 00:32:36;;;;;;;8.95;2.17;;;5.20;96.90;;;;;;5088418;28;20039;-68
2022/02/25 00:35:02;;;;;;;8.93;2.97;;;5.20;96.90;;;;;;5094600;28;20031;-68
2022/02/25 00:37:28;;;;;;;6.18;2.03;;;5.30;97.00;;;;;;5095478;28;20028;-68
2022/02/25 00:39:53;;;;;;;17.58;2.38;;;5.30;97.00;;;;;;5094950;28;20035;-68
2022/02/25 00:42:20;;;;;;;7.50;2.13;;;5.20;97.00;;;;;;5095917;28;20111;-68
2022/02/25 00:44:46;;;;;;;11.52;2.25;;;5.20;97.00;;;;;;5080088;28;20037;-69
2022/02/25 00:47:12;;;;;;;12.25;1.92;;;5.30;97.10;;;;;;5082925;28;20035;-68
2022/02/25 00:49:37;;;;;;;7.43;1.92;;;5.30;97.10;;;;;;5080184;28;20106;-68
2022/02/25 00:52:03;;;;;;;14.13;2.67;;;5.30;97.20;;;;;;5074753;28;20045;-69
2022/02/25 00:54:29;;;;;;;12.18;2.15;;;5.30;97.10;;;;;;5088598;28;20502;-68
2022/02/25 00:56:55;;;;;;;10.45;2.70;;;5.40;97.20;;;;;;5085099;28;20039;-68
2022/02/25 00:59:23;;;;;;;11.07;2.47;;;5.30;97.20;;;;;;5094505;28;20028;-68
2022/02/25 01:01:52;;;;;;;9.90;2.13;;;5.30;97.30;;;;;;5095644;28;20024;-68
2022/02/25 01:04:19;;;;;;;20.00;3.05;;;5.30;97.40;;;;;;5094499;28;20148;-68
2022/02/25 01:06:44;;;;;;;12.35;3.03;;;5.30;97.50;;;;;;5094431;28;20036;-69
2022/02/25 01:09:11;;;;;;;11.77;2.85;;;5.30;97.50;;;;;;5095212;28;20024;-68
2022/02/25 01:11:37;;;;;;;9.40;2.28;;;5.30;97.50;;;;;;5083250;28;20032;-70
2022/02/25 01:14:03;;;;;;;14.10;2.50;;;5.30;97.60;;;;;;5093012;28;20036;-68
2022/02/25 01:16:29;;;;;;;14.63;2.53;;;5.30;97.60;;;;;;5095250;28;20043;-68
2022/02/25 01:18:55;;;;;;;16.05;2.72;;;5.30;97.70;;;;;;5094983;28;20030;-68
2022/02/25 01:21:20;;;;;;;18.50;2.45;;;5.30;97.80;;;;;;5094484;28;20030;-68
2022/02/25 01:23:46;;;;;;;8.00;2.05;;;5.30;97.80;;;;;;5093966;28;20043;-68
2022/02/25 01:26:11;;;;;;;6.60;2.03;;;5.30;97.80;;;;;;5081758;28;20028;-68
2022/02/25 01:28:37;;;;;;;12.13;2.88;;;5.30;97.70;;;;;;5080723;28;20482;-68
2022/02/25 01:31:03;;;;;;;8.98;2.17;;;5.40;97.60;;;;;;5081379;28;20593;-68
2022/02/25 01:33:29;;;;;;;13.05;2.10;;;5.50;97.60;;;;;;5094865;28;20044;-68
2022/02/25 01:35:55;;;;;;;12.20;2.67;;;5.50;97.60;;;;;;5087337;28;20032;-68
2022/02/25 01:38:21;;;;;;;6.60;1.75;;;5.50;97.50;;;;;;5081107;28;20038;-68
2022/02/25 01:40:46;;;;;;;16.45;2.90;;;5.40;97.50;;;;;;5094654;28;20028;-68
2022/02/25 01:43:12;;;;;;;6.60;2.00;;;5.50;97.60;;;;;;5092096;28;20028;-68
2022/02/25 01:45:38;;;;;;;12.48;2.40;;;5.50;97.60;;;;;;5094660;28;20506;-68
2022/02/25 01:48:04;;;;;;;14.70;2.92;;;5.50;97.50;;;;;;5094746;28;20028;-68
2022/02/25 01:50:30;;;;;;;7.55;1.90;;;5.50;97.50;;;;;;5080045;28;20080;-68
2022/02/25 01:53:00;;;;;;;14.48;3.08;;;5.50;97.60;;;;;;5092588;28;20044;-68
2022/02/25 01:55:29;;;;;;;17.45;2.17;;;5.50;97.50;;;;;;5080606;28;20040;-68
2022/02/25 01:57:55;;;;;;;12.73;2.35;;;5.60;97.50;;;;;;5074408;28;20400;-68
2022/02/25 02:00:22;;;;;;;12.98;2.63;;;5.60;97.40;;;;;;5087498;28;20032;-68
2022/02/25 02:02:49;;;;;;;9.95;2.45;;;5.60;97.40;;;;;;5080987;28;20052;-68
2022/02/25 02:05:15;;;;;;;9.57;2.20;;;5.60;97.40;;;;;;5103703;28;20073;-68
2022/02/25 02:07:41;;;;;;;10.98;2.13;;;5.70;97.40;;;;;;5082310;28;20032;-68
2022/02/25 02:10:07;;;;;;;9.98;2.88;;;5.70;97.30;;;;;;5086699;28;20029;-68
2022/02/25 02:12:33;;;;;;;10.85;2.67;;;5.70;97.30;;;;;;5087532;28;20055;-68
2022/02/25 02:14:58;;;;;;;11.32;1.73;;;5.70;97.20;;;;;;5093187;28;20077;-68
2022/02/25 02:17:24;;;;;;;10.68;2.03;;;5.70;97.20;;;;;;5079699;28;20039;-69
2022/02/25 02:19:49;;;;;;;10.38;2.25;;;5.80;97.20;;;;;;5093044;28;20031;-68
2022/02/25 02:22:15;;;;;;;12.35;2.28;;;5.80;97.20;;;;;;5093873;28;20040;-68
2022/02/25 02:24:41;;;;;;;5.80;2.10;;;5.80;97.40;;;;;;5093303;28;20028;-68
2022/02/25 02:27:07;;;;;;;6.82;2.63;;;5.70;97.10;;;;;;5092708;28;20032;-68
2022/02/25 02:29:33;;;;;;;15.05;2.60;;;5.80;97.10;;;;;;5081959;28;20031;-68
2022/02/25 02:31:59;;;;;;;10.25;1.98;;;5.70;97.10;;;;;;5077807;28;20067;-68
2022/02/25 02:34:24;;;;;;;14.10;1.83;;;5.80;97.10;;;;;;5091393;28;20024;-68
2022/02/25 02:36:50;;;;;;;14.88;2.95;;;5.80;97.20;;;;;;5093430;28;20110;-68
2022/02/25 02:39:16;;;;;;;14.13;2.80;;;5.70;97.20;;;;;;5084012;28;20021;-68
2022/02/25 02:41:42;;;;;;;11.50;2.20;;;5.70;97.20;;;;;;5089420;28;20360;-68
2022/02/25 02:44:08;;;;;;;12.68;2.95;;;5.80;97.20;;;;;;5087639;28;20043;-68
2022/02/25 02:46:35;;;;;;;15.57;2.72;;;5.80;97.20;;;;;;5084988;28;20463;-68
2022/02/25 02:49:01;;;;;;;9.20;2.03;;;5.80;97.20;;;;;;5086460;28;20138;-68
2022/02/25 02:51:29;;;;;;;11.75;3.17;;;5.80;97.10;;;;;;5084137;28;20098;-68
2022/02/25 02:53:55;;;;;;;9.85;2.70;;;5.70;97.10;;;;;;5092218;28;20118;-68
2022/02/25 02:56:20;;;;;;;14.93;2.38;;;5.70;97.10;;;;;;5088728;28;20016;-68
2022/02/25 02:58:54;;;;;;;16.20;2.45;;;5.70;97.10;;;;;;5083568;28;20506;-68
2022/02/25 03:01:20;;;;;;;8.95;2.53;;;5.70;97.10;;;;;;5093061;28;20028;-68
2022/02/25 03:03:45;;;;;;;13.48;2.35;;;5.70;97.00;;;;;;5093055;28;20392;-68
2022/02/25 03:06:11;;;;;;;13.32;2.92;;;5.70;97.00;;;;;;5091273;28;20027;-68
2022/02/25 03:08:37;;;;;;;12.02;2.15;;;5.80;97.00;;;;;;5084447;28;20115;-68
2022/02/25 03:11:05;;;;;;;7.15;2.28;;;5.70;96.90;;;;;;5080106;28;20027;-68
2022/02/25 03:13:31;;;;;;;10.35;1.77;;;5.80;96.90;;;;;;5092119;28;20043;-68
2022/02/25 03:15:56;;;;;;;12.63;2.38;;;5.70;96.90;;;;;;5093081;28;20036;-68
2022/02/25 03:18:22;;;;;;;10.35;3.05;;;5.70;96.90;;;;;;5092721;28;20260;-68
2022/02/25 03:20:48;;;;;;;14.32;2.83;;;5.70;96.80;;;;;;5092223;28;20047;-68
2022/02/25 03:23:16;;;;;;;11.75;3.00;;;5.80;96.80;;;;;;5092911;28;20084;-68
2022/02/25 03:25:42;;;;;;;12.10;2.10;;;5.80;96.70;;;;;;5092898;28;20029;-68
2022/02/25 03:28:08;;;;;;;12.70;2.30;;;5.80;96.70;;;;;;5091785;28;20036;-68
2022/02/25 03:30:34;;;;;;;11.80;3.22;;;5.80;96.70;;;;;;5083829;28;20025;-68
2022/02/25 03:32:59;;;;;;;8.48;1.88;;;5.70;96.70;;;;;;5085781;28;20126;-68
2022/02/25 03:35:25;;;;;;;19.90;2.65;;;5.70;96.70;;;;;;5071658;28;20528;-68
2022/02/25 03:37:51;;;;;;;8.70;2.70;;;5.70;96.70;;;;;;5088726;28;20051;-68
2022/02/25 03:40:17;;;;;;;10.05;2.38;;;5.70;96.80;;;;;;5092800;28;20028;-68
2022/02/25 03:42:43;;;;;;;13.80;2.70;;;5.70;96.80;;;;;;5090052;28;20525;-68
2022/02/25 03:45:11;;;;;;;14.38;2.90;;;5.70;96.80;;;;;;5082764;28;20029;-68
2022/02/25 03:47:37;;;;;;;9.25;2.70;;;5.60;96.80;;;;;;5092586;28;20036;-68
2022/02/25 03:50:03;;;;;;;17.90;2.95;;;5.60;96.90;;;;;;5077305;28;20029;-68
2022/02/25 03:52:29;;;;;;;11.45;2.63;;;5.60;96.90;;;;;;5092750;28;20043;-68
2022/02/25 03:54:55;;;;;;;17.95;3.05;;;5.60;96.90;;;;;;5091748;28;20382;-68
2022/02/25 03:57:20;;;;;;;12.40;2.45;;;5.60;96.90;;;;;;5083847;28;20029;-68
2022/02/25 03:59:47;;;;;;;13.90;3.28;;;5.60;97.00;;;;;;5079569;28;20036;-68
2022/02/25 04:02:12;;;;;;;13.13;3.22;;;5.50;96.90;;;;;;5091546;28;20039;-67
2022/02/25 04:04:38;;;;;;;15.38;2.30;;;5.50;97.00;;;;;;5090183;28;20044;-68
2022/02/25 04:07:04;;;;;;;14.02;2.22;;;5.50;97.30;;;;;;5082089;28;20020;-68
2022/02/25 04:09:30;;;;;;;7.43;2.40;;;5.50;97.00;;;;;;5091672;28;20081;-68
2022/02/25 04:11:56;;;;;;;16.38;2.65;;;5.50;97.10;;;;;;5091270;28;20036;-68
2022/02/25 04:14:22;;;;;;;17.77;2.50;;;5.50;97.10;;;;;;5091861;28;20046;-68
2022/02/25 04:16:50;;;;;;;8.45;2.72;;;5.50;97.10;;;;;;5091709;28;20081;-68
2022/02/25 04:19:20;;;;;;;18.65;2.60;;;5.60;97.10;;;;;;5078562;28;20048;-68
2022/02/25 04:21:46;;;;;;;18.40;2.75;;;5.60;97.10;;;;;;5092369;28;20032;-68
2022/02/25 04:24:11;;;;;;;15.23;2.50;;;5.60;97.00;;;;;;5073237;28;20476;-68
2022/02/25 04:26:38;;;;;;;12.05;2.67;;;5.60;97.10;;;;;;5083722;28;20020;-68
2022/02/25 04:29:04;;;;;;;7.35;2.50;;;5.50;97.10;;;;;;5091085;28;20035;-68
2022/02/25 04:31:29;;;;;;;14.20;3.22;;;5.60;97.20;;;;;;5091717;28;20399;-68
2022/02/25 04:33:55;;;;;;;15.50;2.78;;;5.60;97.10;;;;;;5091617;28;20040;-68
2022/02/25 04:36:21;;;;;;;13.15;2.40;;;5.50;97.10;;;;;;5079908;28;20036;-68
2022/02/25 04:38:54;;;;;;;12.85;2.40;;;5.60;97.20;;;;;;5084674;28;20040;-68
2022/02/25 04:41:21;;;;;;;6.30;2.20;;;5.60;97.20;;;;;;5072526;28;20037;-68
2022/02/25 04:43:47;;;;;;;23.20;2.85;;;5.50;97.20;;;;;;5090139;28;20085;-67
2022/02/25 04:46:18;;;;;;;12.70;2.53;;;5.50;97.20;;;;;;5095052;28;20047;-68
2022/02/25 04:48:44;;;;;;;14.07;3.05;;;5.50;97.30;;;;;;5095853;28;20043;-68
2022/02/25 04:51:10;;;;;;;16.60;3.28;;;5.50;97.30;;;;;;5095118;28;20036;-68
2022/02/25 04:53:39;;;;;;;10.07;2.30;;;5.50;97.20;;;;;;5095471;28;20047;-68
2022/02/25 04:56:05;;;;;;;13.35;3.22;;;5.50;97.30;;;;;;5095887;28;20391;-68
2022/02/25 04:58:33;;;;;;;13.15;2.55;;;5.40;97.40;;;;;;5094564;28;20035;-68
2022/02/25 05:01:00;;;;;;;15.35;2.75;;;5.40;97.40;;;;;;5095615;28;20032;-68
2022/02/25 05:03:26;;;;;;;12.10;2.72;;;5.40;97.50;;;;;;5095185;28;20434;-68
2022/02/25 05:05:51;;;;;;;18.27;3.22;;;5.40;97.50;;;;;;5094186;28;20082;-68
2022/02/25 05:08:17;;;;;;;23.85;2.92;;;5.40;97.50;;;;;;5094743;28;20020;-68
2022/02/25 05:10:42;;;;;;;17.13;2.90;;;5.40;97.50;;;;;;5094717;28;20082;-68
2022/02/25 05:13:08;;;;;;;12.48;2.70;;;5.40;97.50;;;;;;5094168;28;20062;-74
2022/02/25 05:21:02;;;;;;;14.10;3.25;;;5.40;97.60;;;;;;5094689;28;20028;-68
2022/02/25 05:23:28;;;;;;;9.57;2.25;;;5.50;97.60;;;;;;5094967;28;20035;-68
2022/02/25 05:25:54;;;;;;;11.40;3.08;;;5.50;97.60;;;;;;5083804;28;20039;-68
2022/02/25 05:28:20;;;;;;;21.05;3.15;;;5.50;97.50;;;;;;5092327;28;20046;-68
2022/02/25 05:30:46;;;;;;;9.32;2.40;;;5.50;97.50;;;;;;5094993;28;20036;-67
2022/02/25 05:33:11;;;;;;;18.98;3.35;;;5.60;97.50;;;;;;5094652;28;20106;-67
2022/02/25 05:35:38;;;;;;;14.55;2.78;;;5.50;97.50;;;;;;5094274;28;20485;-68
2022/02/25 05:38:04;;;;;;;8.50;2.25;;;5.50;97.50;;;;;;5088849;28;20107;-68
2022/02/25 05:40:30;;;;;;;18.10;2.53;;;5.50;97.60;;;;;;5092420;28;20431;-68
2022/02/25 05:42:56;;;;;;;16.95;2.75;;;5.50;97.60;;;;;;5086879;28;20052;-68
2022/02/25 05:45:22;;;;;;;11.80;3.38;;;5.50;97.70;;;;;;5094027;28;20471;-68
2022/02/25 05:47:48;;;;;;;11.45;2.42;;;5.50;97.60;;;;;;5093422;28;20052;-68
2022/02/25 05:50:17;;;;;;;14.85;2.95;;;5.50;97.60;;;;;;5093666;28;20024;-67
2022/02/25 05:52:44;;;;;;;13.52;2.97;;;5.50;97.70;;;;;;5093737;28;20048;-68
2022/02/25 05:55:11;;;;;;;14.07;2.67;;;5.50;97.80;;;;;;5092953;28;20078;-68
2022/02/25 05:57:37;;;;;;;10.77;2.50;;;5.50;98.20;;;;;;5093809;28;20047;-68
2022/02/25 06:00:08;;;;;;;13.68;2.70;;;5.40;98.00;;;;;;5090869;28;20452;-68
2022/02/25 06:02:42;;;;;;;16.20;3.33;;;5.50;98.30;;;;;;5090103;28;20056;-68
2022/02/25 06:05:09;;;;;;;15.82;3.15;;;5.40;98.20;;;;;;5092845;28;20024;-68
2022/02/25 06:07:34;;;;;;;20.95;3.65;;;5.40;98.30;;;;;;5091532;28;20028;-68
2022/02/25 06:10:00;;;;;;;12.55;2.75;;;5.40;98.40;;;;;;5090128;28;20074;-68
2022/02/25 06:12:26;;;;;;;18.90;3.10;;;5.40;98.60;;;;;;5093070;28;20032;-68
2022/02/25 06:14:51;;;;;;;9.93;2.92;;;5.30;98.70;;;;;;5092321;28;20137;-68
2022/02/25 06:17:17;;;;;;;13.38;2.58;;;5.30;98.70;;;;;;5090827;28;20028;-67
2022/02/25 06:19:43;;;;;;;11.05;2.88;;;5.30;98.90;;;;;;5093378;28;20055;-67
2022/02/25 06:22:08;;;;;;;10.32;2.30;;;5.20;99.00;;;;;;5093175;28;20020;-67
2022/02/25 06:24:36;;;;;;;13.95;2.97;;;5.20;99.20;;;;;;5086692;28;20090;-68
2022/02/25 06:27:02;;;;;;;11.43;2.88;;;5.20;99.20;;;;;;5089145;28;20016;-67
2022/02/25 06:29:28;;;;;;;8.48;2.33;;;5.10;99.30;;;;;;5084843;28;20074;-68
2022/02/25 06:31:54;;;;;;;15.55;2.85;;;5.20;99.40;;;;;;5092813;28;20442;-68
2022/02/25 06:34:19;;;;;;;7.65;2.25;;;5.20;99.40;;;;;;5082320;28;20116;-68
2022/02/25 06:36:45;;;;;;;7.63;1.77;;;5.20;99.30;;;;;;5086484;28;20052;-68
2022/02/25 06:39:10;;;;;;;8.70;1.80;;;5.30;99.20;;;;;;5073477;28;20383;-68
2022/02/25 06:41:36;;;;;;;16.48;2.78;;;5.40;99.10;;;;;;5092334;28;20020;-68
2022/02/25 06:44:02;;;;;;;13.43;2.53;;;5.50;98.90;;;;;;5092645;28;20024;-67
2022/02/25 06:46:28;;;;;;;11.02;2.80;;;5.50;98.80;;;;;;5093612;28;20032;-68
2022/02/25 06:48:53;;;;;;;10.80;1.92;;;5.50;98.70;;;;;;5093232;28;20388;-68
2022/02/25 06:51:19;;;;;;;10.98;2.35;;;5.60;98.70;;;;;;5091834;28;20141;-67
2022/02/25 06:53:45;;;;;;;8.88;2.25;;;5.60;98.60;;;;;;5092796;28;20118;-68
2022/02/25 06:56:10;;;;;;;14.20;3.25;;;5.60;98.70;;;;;;5093584;28;20027;-68
2022/02/25 06:58:37;;;;;;;12.93;2.35;;;5.60;98.70;;;;;;5082583;28;20031;-68
2022/02/25 07:01:05;;;;;;;9.68;2.05;;;5.60;98.80;;;;;;5080375;28;20047;-68
2022/02/25 07:03:31;;;;;;;11.98;2.67;;;5.60;98.80;;;;;;5092716;28;20059;-68
2022/02/25 07:05:58;;;;;;;10.55;2.60;;;5.60;98.90;;;;;;5091689;28;20494;-68
2022/02/25 07:08:24;;;;;;;10.32;2.75;;;5.60;98.90;;;;;;5085969;28;20032;-68
2022/02/25 07:10:51;;;;;;;12.18;2.97;;;5.60;98.90;;;;;;5072727;28;20094;-67
2022/02/25 07:13:17;;;;;;;11.43;2.50;;;5.60;98.90;;;;;;5079162;28;20128;-68
2022/02/25 07:15:42;;;;;;;15.63;2.88;;;5.60;98.90;;;;;;5091389;28;20028;-68
2022/02/25 07:18:09;;;;;;;11.77;2.50;;;5.60;99.00;;;;;;5081258;28;20081;-68
2022/02/25 07:20:36;;;;;;;17.80;3.42;;;5.50;99.00;;;;;;5091210;28;20034;-68
2022/02/25 07:23:03;;;;;;;13.55;2.83;;;5.60;99.00;;;;;;5092260;28;20036;-68
2022/02/25 07:25:29;;;;;;;11.95;2.78;;;5.60;99.00;;;;;;5093053;28;20852;-68
2022/02/25 07:27:55;;;;;;;14.73;3.30;;;5.60;99.00;;;;;;5092223;28;20111;-68
2022/02/25 07:30:21;;;;;;;22.92;3.58;;;5.60;99.00;;;;;;5092538;28;20540;-68
2022/02/25 07:32:47;;;;;;;9.32;3.00;;;5.70;99.00;;;;;;5092770;28;20127;-67
2022/02/25 07:35:14;;;;;;;9.38;2.10;;;5.60;98.90;;;;;;5074678;28;20135;-68
2022/02/25 07:37:42;;;;;;;19.00;3.17;;;5.60;99.00;;;;;;5075942;28;20115;-67
2022/02/25 07:40:10;;;;;;;12.63;3.38;;;5.60;99.00;;;;;;5091199;28;20028;-68
2022/02/25 07:42:36;;;;;;;14.00;3.13;;;5.70;99.00;;;;;;5091704;28;20751;-68
2022/02/25 07:45:03;;;;;;;9.65;2.60;;;5.60;99.00;;;;;;5087070;28;20024;-67
2022/02/25 07:47:28;;;;;;;11.48;2.90;;;5.60;99.10;;;;;;5090279;28;20020;-68
2022/02/25 07:49:54;;;;;;;10.27;1.90;;;5.60;99.00;;;;;;5086550;28;20371;-68
2022/02/25 07:52:20;;;;;;;12.93;1.95;;;5.70;99.00;;;;;;5091925;28;20092;-67
2022/02/25 07:54:47;;;;;;;16.45;4.55;;;5.70;99.00;;;;;;5088247;28;20038;-68
2022/02/25 07:57:14;;;;;;;11.18;3.88;;;5.70;98.90;;;;;;5091582;28;20028;-68
2022/02/25 07:59:43;;;;;;;8.82;2.17;;;5.70;98.90;;;;;;5091680;28;20112;-68
2022/02/25 08:02:09;;;;;;;11.60;2.40;;;5.80;98.90;;;;;;5089711;28;20051;-68
2022/02/25 08:04:35;;;;;;;20.88;2.95;;;5.80;98.80;;;;;;5091015;28;20027;-68
2022/02/25 08:07:01;;;;;;;10.00;3.80;;;5.80;98.80;;;;;;5091818;28;20031;-68
2022/02/25 08:09:27;;;;;;;18.13;3.78;;;5.90;98.70;;;;;;5090967;28;20020;-68
2022/02/25 08:11:52;;;;;;;14.75;2.97;;;5.90;98.70;;;;;;5091550;28;20403;-71
2022/02/25 08:14:18;;;;;;;18.90;3.60;;;5.90;98.70;;;;;;5091526;28;20074;-70
2022/02/25 08:16:44;;;;;;;8.88;1.88;;;5.90;98.80;;;;;;5092030;28;20491;-70
2022/02/25 08:19:10;;;;;;;14.82;2.85;;;6.00;98.90;;;;;;5093998;28;20483;-68
2022/02/25 08:21:41;;;;;;;19.15;3.25;;;5.90;99.00;;;;;;5094574;28;20059;-68
2022/02/25 08:24:07;;;;;;;12.00;3.67;;;6.00;99.10;;;;;;5090760;28;20028;-68
2022/02/25 08:26:33;;;;;;;19.30;3.22;;;6.00;99.20;;;;;;5093435;28;20051;-68
2022/02/25 08:28:59;;;;;;;13.52;3.35;;;6.00;99.30;;;;;;5092338;28;20024;-68
2022/02/25 08:31:25;;;;;;;9.60;2.70;;;5.90;99.50;;;;;;5092623;28;20393;-68
2022/02/25 08:33:51;;;;;;;14.15;2.67;;;5.90;99.60;;;;;;5094436;28;20075;-68
2022/02/25 08:36:18;;;;;;;7.15;2.22;;;5.90;99.60;;;;;;5093174;28;20090;-68
2022/02/25 08:38:44;;;;;;;12.48;3.03;;;5.90;99.60;;;;;;5094046;28;20376;-68
2022/02/25 08:41:09;;;;;;;21.58;3.17;;;6.00;99.60;;;;;;5092488;28;20111;-68
2022/02/25 08:43:35;;;;;;;18.83;2.60;;;6.00;99.60;;;;;;5090028;28;20048;-68
2022/02/25 08:46:01;;;;;;;14.90;2.95;;;5.90;99.70;;;;;;5090447;28;20020;-67
2022/02/25 08:48:28;;;;;;;13.13;2.60;;;5.80;99.80;;;;;;5091873;28;20032;-73
2022/02/25 08:50:54;;;;;;;17.55;3.30;;;5.80;99.90;;;;;;5090569;28;20032;-68
2022/02/25 08:53:22;;;;;;;13.60;3.35;;;5.80;99.90;;;;;;5092394;28;20036;-68
2022/02/25 08:55:47;;;;;;;11.18;2.85;;;5.80;99.90;;;;;;5092603;28;20032;-68
2022/02/25 08:58:14;;;;;;;10.73;2.83;;;5.80;99.90;;;;;;5091701;28;20028;-68
2022/02/25 09:00:39;;;;;;;8.57;2.17;;;5.80;99.90;;;;;;5088837;28;20118;-67
2022/02/25 09:03:05;;;;;;;9.63;2.08;;;5.80;99.90;;;;;;5088873;28;20139;-67
2022/02/25 09:05:31;;;;;;;7.25;2.30;;;5.80;99.80;;;;;;5087882;28;20055;-67
2022/02/25 09:07:56;;;;;;;11.95;2.25;;;5.80;99.70;;;;;;5092644;28;20028;-67
2022/02/25 09:10:23;;;;;;;16.90;2.50;;;5.90;99.60;;;;;;5092463;28;20031;-67
2022/02/25 09:12:49;;;;;;;10.30;2.15;;;5.90;99.50;;;;;;5091586;28;20048;-67
2022/02/25 09:15:22;;;;;;;15.73;1.83;;;6.00;99.40;;;;;;5089241;28;20032;-67
2022/02/25 09:17:51;;;;;;;16.25;2.92;;;6.00;99.40;;;;;;5092543;28;20028;-67
2022/02/25 09:20:18;;;;;;;10.10;2.47;;;6.10;99.40;;;;;;5089843;28;20028;-67
2022/02/25 09:22:44;;;;;;;8.93;2.45;;;6.10;99.40;;;;;;5092385;28;20035;-67
2022/02/25 09:25:10;;;;;;;10.50;2.50;;;6.20;99.50;;;;;;5091907;28;20024;-67
2022/02/25 09:27:37;;;;;;;25.48;3.65;;;6.20;99.60;;;;;;5090391;28;20077;-67
2022/02/25 09:30:04;;;;;;;17.55;3.33;;;6.20;99.60;;;;;;5094275;28;20085;-68
2022/02/25 09:32:30;;;;;;;20.70;4.35;;;6.30;99.80;;;;;;5090639;28;20077;-67
2022/02/25 09:34:55;;;;;;;18.10;2.95;;;6.20;99.80;;;;;;5085149;28;20106;-67
2022/02/25 09:37:22;;;;;;;20.58;2.70;;;6.20;99.80;;;;;;5093637;28;20097;-71
2022/02/25 09:39:48;;;;;;;15.75;1.92;;;6.20;99.70;;;;;;5094682;28;20666;-68
2022/02/25 09:42:14;;;;;;;4.45;1.55;;;6.30;99.50;;;;;;5089705;28;20530;-67
2022/02/25 09:44:39;;;;;;;8.52;1.55;;;6.30;99.40;;;;;;5089821;28;20028;-66
2022/02/25 09:47:05;;;;;;;6.43;1.60;;;6.40;99.20;;;;;;5093016;28;20459;-69
2022/02/25 09:49:31;;;;;;;4.32;1.63;;;6.50;99.00;;;;;;5093794;28;20035;-70
2022/02/25 09:51:57;;;;;;;7.07;1.88;;;6.50;98.90;;;;;;5090357;28;20020;-67
2022/02/25 09:54:23;;;;;;;6.18;1.27;;;6.60;98.70;;;;;;5092006;28;20032;-67
2022/02/25 09:56:49;;;;;;;1.90;1.05;;;6.70;98.60;;;;;;5089865;28;20395;-67
2022/02/25 09:59:16;;;;;;;14.85;2.13;;;6.70;98.40;;;;;;5089953;28;20032;-67
2022/02/25 10:01:43;;;;;;;3.40;1.42;;;6.70;98.30;;;;;;5089304;28;20076;-67
2022/02/25 10:04:22;;;;;;;6.15;1.05;;;6.70;98.30;;;;;;5091054;28;20052;-67
2022/02/25 10:06:48;;;;;;;8.98;3.15;;;6.80;98.20;;;;;;5090001;28;20425;-67
2022/02/25 10:09:37;;;;;;;10.88;1.73;;;6.80;98.10;;;;;;5089480;28;20036;-67
2022/02/25 10:12:05;;;;;;;3.05;1.15;;;6.90;98.10;;;;;;5091761;28;20024;-67
2022/02/25 10:14:36;;;;;;;6.85;1.52;;;6.90;98.00;;;;;;5091614;28;20036;-67
2022/02/25 10:17:05;;;;;;;9.07;2.17;;;6.90;97.90;;;;;;5091297;28;20024;-67
2022/02/25 10:19:31;;;;;;;15.70;3.60;;;7.00;97.80;;;;;;5091663;28;20039;-67
2022/02/25 10:22:19;;;;;;;6.90;1.23;;;7.00;97.60;;;;;;5088157;28;20024;-67
2022/02/25 10:24:52;;;;;;;6.10;2.20;;;7.00;97.60;;;;;;5089676;28;20024;-67
2022/02/25 10:27:34;;;;;;;3.85;1.05;;;7.10;97.60;;;;;;5089241;28;20059;-67
2022/02/25 10:30:09;;;;;;;10.98;2.10;;;7.10;97.60;;;;;;5086557;28;20896;-67
2022/02/25 10:32:47;;;;;;;7.32;1.73;;;7.10;97.60;;;;;;5087314;28;20476;-67
2022/02/25 10:35:35;;;;;;;13.88;2.95;;;7.10;97.70;;;;;;5089045;28;20115;-68
2022/02/25 10:38:07;;;;;;;4.50;1.40;;;7.10;97.70;;;;;;5090932;28;20020;-68
2022/02/25 10:40:45;;;;;;;10.80;1.95;;;7.10;97.70;;;;;;5089816;28;20071;-68
2022/02/25 10:43:22;;;;;;;20.25;3.15;;;7.10;97.70;;;;;;5087321;28;20075;-68
2022/02/25 10:46:03;;;;;;;14.82;1.98;;;7.00;97.70;;;;;;5092385;28;20472;-68
2022/02/25 10:48:32;;;;;;;11.52;2.38;;;7.10;97.70;;;;;;5086291;28;20043;-67
2022/02/25 10:51:22;;;;;;;16.55;2.50;;;7.00;97.80;;;;;;5092686;28;20055;-67
2022/02/25 10:53:50;;;;;;;15.52;2.83;;;7.10;97.90;;;;;;5087039;28;20108;-67
2022/02/25 10:56:18;;;;;;;10.15;2.22;;;7.10;97.90;;;;;;5091375;28;20072;-67
2022/02/25 10:58:50;;;;;;;5.35;1.10;;;7.10;98.20;;;;;;5079830;28;20028;-67
2022/02/25 11:01:20;;;;;;;4.15;1.35;;;7.10;97.90;;;;;;5088514;28;20024;-67
2022/02/25 11:04:04;;;;;;;4.82;1.35;;;7.10;97.80;;;;;;5080097;28;20054;-67
2022/02/25 11:06:31;;;;;;;6.95;1.15;;;7.10;97.90;;;;;;5083044;28;20047;-67
2022/02/25 11:08:57;;;;;;;11.55;1.92;;;7.20;97.90;;;;;;5090090;28;20028;-67
2022/02/25 11:11:24;;;;;;;3.00;1.20;;;7.30;97.70;;;;;;5081636;28;20031;-67
2022/02/25 11:13:53;;;;;;;11.73;2.08;;;7.30;97.10;;;;;;5090365;28;20043;-67
2022/02/25 11:16:20;;;;;;;11.15;2.30;;;7.30;97.40;;;;;;5091877;28;20040;-68
2022/02/25 11:18:47;;;;;;;2.67;1.00;;;7.40;97.40;;;;;;5088133;28;20036;-67
2022/02/25 11:21:14;;;;;;;4.82;1.25;;;7.40;97.40;;;;;;5091151;28;20016;-67
2022/02/25 11:23:43;;;;;;;3.92;0.90;;;7.40;96.70;;;;;;5090892;28;20052;-67
2022/02/25 11:26:13;;;;;;;12.93;1.75;;;7.40;96.90;;;;;;5087524;28;20024;-67
2022/02/25 11:28:40;;;;;;;7.78;1.58;;;7.50;97.00;;;;;;5089182;28;20051;-67
2022/02/25 11:31:29;;;;;;;2.35;0.77;;;7.50;97.10;;;;;;5089964;28;20036;-67
2022/02/25 11:33:55;;;;;;;5.22;1.17;;;7.50;97.20;;;;;;5087357;28;20039;-68
2022/02/25 11:36:40;;;;;;;11.27;1.67;;;7.50;97.20;;;;;;5088804;28;20024;-67
2022/02/25 11:39:24;;;;;;;27.00;3.78;;;7.60;97.30;;;;;;5087783;28;20035;-67
2022/02/25 11:41:58;;;;;;;14.40;2.35;;;7.60;97.40;;;;;;5089193;28;20039;-68
2022/02/25 11:44:24;;;;;;;6.32;1.80;;;7.60;97.40;;;;;;5087935;28;20044;-68
2022/02/25 11:46:51;;;;;;;24.15;3.33;;;7.60;97.50;;;;;;5085592;28;20564;-69
2022/02/25 11:49:27;;;;;;;4.95;1.40;;;7.70;97.90;;;;;;5086945;28;20045;-68
2022/02/25 11:51:53;;;;;;;19.23;3.72;;;7.70;98.00;;;;;;5088082;28;20028;-68
2022/02/25 11:54:22;;;;;;;7.45;2.20;;;7.80;98.10;;;;;;5088685;28;20127;-67
2022/02/25 11:56:59;;;;;;;21.17;3.20;;;7.80;97.90;;;;;;5087878;28;20073;-67
2022/02/25 11:59:33;;;;;;;19.25;2.50;;;7.80;97.90;;;;;;5088665;28;20032;-67
2022/02/25 12:02:14;;;;;;;9.25;1.88;;;7.90;97.90;;;;;;5086459;28;20036;-67
2022/02/25 12:04:43;;;;;;;14.57;1.90;;;7.80;98.00;;;;;;5090508;28;20491;-68
2022/02/25 12:07:37;;;;;;;16.00;3.22;;;7.80;98.10;;;;;;5086624;28;20043;-68
2022/02/25 12:10:12;;;;;;;11.68;2.17;;;7.90;98.30;;;;;;5091269;28;20070;-72
2022/02/25 12:12:46;;;;;;;19.85;2.67;;;7.90;98.40;;;;;;5087553;28;20032;-71
2022/02/25 12:15:23;;;;;;;30.13;3.92;;;7.90;98.50;;;;;;5086103;28;20056;-72
2022/02/25 12:18:02;;;;;;;6.30;2.17;;;8.00;98.60;;;;;;5087462;28;20039;-72
2022/02/25 12:20:37;;;;;;;1.15;0.55;;;8.10;98.50;;;;;;5089297;28;20028;-71
2022/02/25 12:23:08;;;;;;;0.57;0.57;;;8.20;98.20;;;;;;5088302;28;20375;-72
2022/02/25 12:25:40;;;;;;;15.88;1.77;;;8.20;97.90;;;;;;5088090;28;20552;-68
2022/02/25 12:28:22;;;;;;;9.77;1.50;;;8.20;97.70;;;;;;5097082;28;20043;-67
2022/02/25 12:30:58;;;;;;;16.40;2.25;;;8.30;97.50;;;;;;5090422;28;20085;-68
2022/02/25 12:33:29;;;;;;;8.07;1.77;;;8.20;96.30;;;;;;5089912;28;20047;-68
2022/02/25 12:35:59;;;;;;;14.13;2.50;;;8.20;96.30;;;;;;5088242;28;20035;-69
2022/02/25 12:38:30;;;;;;;11.52;1.70;;;8.20;96.20;;;;;;5086339;28;20048;-68
2022/02/25 12:41:16;;;;;;;12.60;2.50;;;8.20;96.10;;;;;;5087491;28;20034;-67
2022/02/25 12:43:49;;;;;;;16.77;2.58;;;8.20;96.00;;;;;;5088113;28;20472;-67
2022/02/25 12:46:17;;;;;;;19.83;3.00;;;8.20;96.20;;;;;;5084459;28;20024;-69
2022/02/25 12:48:42;;;;;;;24.23;4.07;;;8.10;96.40;;;;;;5090497;28;20165;-69
2022/02/25 12:51:08;;;;;;;26.27;3.22;;;8.10;96.60;;;;;;5088768;28;20107;-70
2022/02/25 12:53:56;;;;;;;23.15;3.20;;;8.10;96.60;;;;;;5072581;28;20100;-69
2022/02/25 12:56:23;;;;;;;26.08;2.85;;;8.10;96.90;;;;;;5090980;28;20028;-69
2022/02/25 12:58:51;;;;;;;6.80;2.33;;;8.10;96.90;;;;;;5080264;28;20036;-69